createdAt,value
2024-01-30T00:00:21.657Z,8.04
2024-01-30T00:10:24.810Z,7.67
2024-01-30T00:20:29.246Z,7.38
2024-01-30T00:30:32.170Z,7.11
2024-01-30T00:40:36.757Z,7.04
2024-01-30T00:50:40.081Z,6.93
2024-01-30T01:00:44.398Z,6.84
2024-01-30T01:10:47.581Z,6.83
2024-01-30T01:20:51.852Z,6.73
2024-01-30T01:30:55.063Z,6.67
2024-01-30T01:40:59.309Z,6.68
2024-01-30T01:51:02.825Z,7.42
2024-01-30T02:01:07.797Z,7.55
2024-01-30T02:11:11.670Z,7.26
2024-01-30T02:21:16.540Z,7.03
2024-01-30T02:31:19.534Z,7.73
2024-01-30T02:41:23.722Z,7.83
2024-01-30T02:51:26.823Z,7.71
2024-01-30T03:01:31.186Z,7.70
2024-01-30T03:11:34.885Z,7.64
2024-01-30T03:21:39.383Z,7.68
2024-01-30T03:31:42.589Z,7.60
2024-01-30T03:41:47.035Z,7.68
2024-01-30T03:51:50.179Z,7.59
2024-01-30T04:01:55.008Z,7.49
2024-01-30T04:11:58.291Z,7.39
2024-01-30T04:22:02.704Z,7.46
2024-01-30T04:32:06.654Z,7.53
2024-01-30T04:42:10.999Z,7.46
2024-01-30T04:52:14.166Z,7.27
2024-01-30T05:02:18.722Z,7.34
2024-01-30T05:12:21.624Z,7.33
2024-01-30T05:22:26.038Z,7.04
2024-01-30T05:32:29.176Z,6.88
2024-01-30T05:42:33.875Z,6.67
2024-01-30T05:52:37.094Z,6.60
2024-01-30T06:02:41.776Z,6.89
2024-01-30T06:12:44.902Z,7.34
2024-01-30T06:22:49.379Z,7.40
2024-01-30T06:32:52.605Z,7.33
2024-01-30T06:42:57.067Z,7.32
2024-01-30T06:53:00.121Z,7.29
2024-01-30T07:03:04.834Z,7.40
2024-01-30T07:13:07.829Z,7.47
2024-01-30T07:23:14.936Z,7.54
2024-01-30T07:33:17.999Z,7.70
2024-01-30T07:43:23.971Z,7.72
2024-01-30T07:53:27.172Z,7.70
2024-01-30T08:03:31.718Z,7.72
2024-01-30T08:13:34.780Z,7.98
2024-01-30T08:23:40.404Z,8.15
2024-01-30T08:33:44.709Z,8.21
2024-01-30T08:43:50.124Z,8.13
2024-01-30T08:53:53.832Z,8.25
2024-01-30T09:04:00.960Z,8.62
2024-01-30T09:14:04.228Z,9.03
2024-01-30T09:24:10.243Z,9.26
2024-01-30T09:34:13.430Z,9.72
2024-01-30T09:44:19.379Z,10.35
2024-01-30T09:54:22.993Z,10.98
2024-01-30T10:04:27.572Z,11.36
2024-01-30T10:14:30.803Z,11.59
2024-01-30T10:24:36.028Z,11.59
2024-01-30T10:34:39.723Z,11.56
2024-01-30T10:44:57.018Z,11.57
2024-01-30T10:55:01.049Z,11.61
2024-01-30T11:05:07.423Z,11.69
2024-01-30T11:15:12.174Z,11.67
2024-01-30T11:25:18.150Z,11.63
2024-01-30T11:35:21.763Z,11.61
2024-01-30T11:45:26.856Z,11.65
2024-01-30T11:55:34.375Z,11.73
2024-01-30T12:05:44.309Z,11.81
2024-01-30T12:15:47.701Z,11.88
2024-01-30T12:25:52.442Z,11.92
2024-01-30T12:36:02.200Z,11.96
2024-01-30T12:46:08.405Z,11.97
2024-01-30T12:56:11.341Z,12.07
2024-01-30T13:06:15.953Z,12.03
2024-01-30T13:16:19.201Z,11.85
2024-01-30T13:26:23.942Z,11.74
2024-01-30T13:36:27.366Z,11.74
2024-01-30T13:46:32.177Z,11.65
2024-01-30T13:56:35.534Z,11.83
2024-01-30T14:06:50.065Z,11.84
2024-01-30T14:16:56.778Z,11.96
2024-01-30T14:27:01.821Z,11.88
2024-01-30T14:37:04.900Z,11.87
2024-01-30T14:47:10.676Z,11.88
2024-01-30T14:57:15.435Z,11.84
2024-01-30T15:07:25.648Z,11.87
2024-01-30T15:17:36.480Z,11.78
2024-01-30T15:27:41.246Z,11.70
2024-01-30T15:37:44.411Z,11.65
2024-01-30T15:47:48.850Z,11.79
2024-01-30T15:57:53.268Z,11.78
2024-01-30T16:07:57.767Z,11.78
2024-01-30T16:18:00.801Z,11.78
2024-01-30T16:28:05.918Z,11.81
2024-01-30T16:38:09.879Z,11.87
2024-01-30T16:48:18.420Z,11.79
2024-01-30T16:58:21.677Z,11.01
2024-01-30T17:08:26.134Z,10.86
2024-01-30T17:18:29.365Z,10.66
2024-01-30T17:28:33.804Z,10.53
2024-01-30T17:38:37.312Z,10.37
2024-01-30T17:48:42.159Z,10.26
2024-01-30T17:58:45.773Z,10.15
2024-01-30T18:08:50.648Z,10.20
2024-01-30T18:18:53.811Z,10.13
2024-01-30T18:28:58.149Z,10.15
2024-01-30T18:39:01.164Z,10.03
2024-01-30T18:49:05.584Z,10.00
2024-01-30T18:59:09.470Z,10.05
2024-01-30T19:09:14.165Z,10.01
2024-01-30T19:19:17.514Z,10.12
2024-01-30T19:29:21.734Z,9.92
2024-01-30T19:39:24.691Z,9.91
2024-01-30T19:49:29.686Z,9.88
2024-01-30T19:59:32.876Z,9.82
2024-01-30T20:09:37.134Z,9.59
2024-01-30T20:19:40.555Z,9.58
2024-01-30T20:29:45.024Z,9.67
2024-01-30T20:39:48.176Z,9.51
2024-01-30T20:49:52.790Z,9.45
2024-01-30T20:59:55.950Z,9.42
2024-01-30T21:10:00.268Z,9.59
2024-01-30T21:20:03.497Z,9.41
2024-01-30T21:30:09.442Z,9.32
2024-01-30T21:40:15.841Z,9.28
2024-01-30T21:50:21.068Z,9.20
2024-01-30T22:00:24.319Z,9.26
2024-01-30T22:10:29.072Z,9.11
2024-01-30T22:20:32.150Z,9.07
2024-01-30T22:30:37.284Z,9.01
2024-01-30T22:40:40.618Z,9.00
2024-01-30T22:50:46.073Z,8.71
2024-01-30T23:00:49.260Z,8.75
2024-01-30T23:10:53.699Z,8.67
2024-01-30T23:21:11.711Z,8.49
2024-01-30T23:31:16.147Z,8.53
2024-01-30T23:41:19.227Z,8.62
2024-01-30T23:51:25.116Z,8.55
